• Join FlightAware (Why Join?)
  • Login
  • US Flag 
01:54PM EDT


 

Airport Tracker/Info


-or-


 

Live Flight TrackerFlight Track Log ✈ UAL4550 ✈ 02-May-2013 ✈ KMCI - KIAH

Flight Track Log - Related Links

Times and Time Zones

All times are in EDT time to prevent confusion due to time zone crossing. See the UAL4550 flight status page for this flight to view local times or setup timezone preferences in your user account.

Time Position Orientation Groundspeed Altitude Reporting Facility
EDT Latitude Longitude Course Direction KTS MPH feet Rate Location/Type
08:06PM 39.3167 -94.7167 199° South 154 177 1,700  Level Kansas City TRACON
08:07PM 39.3667 -94.7500 333° Northwest 194 223 4,800 2,700 Climbing Kansas City TRACON
08:08PM 39.3581 -94.7828 251° West 212 244 6,000 2,640 Climbing Kansas City Center
08:09PM 39.3519 -94.8622 264° West 232 267 8,800 2,220 Climbing Kansas City Center
08:10PM 38.9670 -94.8332 195° South  Level FlightAware Approximate
08:10PM 39.2881 -94.9192 215° Southwest 284 327 10,600  Level Kansas City Center
08:11PM 38.8825 -94.8652 199° South  Level FlightAware Approximate
08:11PM 39.2006 -94.9394 190° South 333 383 11,600  Level Kansas City Center
08:12PM 38.7992 -94.9022 199° South  Level FlightAware Approximate
08:12PM 39.1097 -94.9564 188° South 340 391 13,800  Level Kansas City Center
08:13PM 39.0106 -94.9750 188° South 320 368 16,500 2,040 Climbing Kansas City Center
08:14PM 38.9294 -94.9900 188° South 306 352 18,000 1,680 Climbing Kansas City Center
08:15PM 38.8339 -95.0069 188° South 308 354 20,000 1,500 Climbing Kansas City Center
08:16PM 38.7492 -95.0228 188° South 321 369 21,200 1,260 Climbing Kansas City Center
08:17PM 38.6608 -95.0392 188° South 332 382 22,600 1,440 Climbing Kansas City Center
08:18PM 38.5572 -95.0575 188° South 336 387 24,200 1,320 Climbing Kansas City Center
08:19PM 38.4667 -95.0756 189° South 341 392 25,400 1,320 Climbing Kansas City Center
08:20PM 38.3639 -95.1097 195° South 340 391 27,000 1,560 Climbing Kansas City Center
08:21PM 38.2792 -95.1403 196° South 335 386 28,600 1,560 Climbing Kansas City Center
08:22PM 38.1819 -95.1736 195° South 326 375 30,300 1,500 Climbing Kansas City Center
08:23PM 38.0994 -95.2019 195° South 321 369 31,800 1,380 Climbing Kansas City Center
08:24PM 38.0192 -95.2306 196° South 315 362 33,200 1,440 Climbing Kansas City Center
08:25PM 37.9292 -95.2619 195° South 307 353 34,800 1,260 Climbing Kansas City Center
08:26PM 37.8503 -95.2894 195° South 298 343 35,900 360 Climbing Kansas City Center
08:28PM 37.7230 -95.3229 192° South  Level FlightAware Approximate
08:28PM 37.6789 -95.3481 192° South 327 376 36,000  Level Kansas City Center
08:29PM 37.5658 -95.3878 196° South 348 400 36,000  Level Kansas City Center
08:30PM 37.4653 -95.4194 194° South 366 421 36,000  Level Kansas City Center
08:31PM 37.3622 -95.4572 196° South 379 436 36,000  Level Kansas City Center
08:32PM 37.2572 -95.4944 196° South 388 447 36,000  Level Kansas City Center
08:33PM 37.1531 -95.5294 195° South 387 445 36,000  Level Kansas City Center
08:34PM 37.0494 -95.5647 195° South 386 444 36,000  Level Kansas City Center
08:35PM 36.9444 -95.5992 195° South 388 447 36,000  Level Kansas City Center
08:36PM 36.8406 -95.6344 195° South 387 445 36,000  Level Kansas City Center
08:38PM 36.7150 -95.6761 195° South 389 448 36,000  Level Kansas City Center
08:39PM 36.6114 -95.7122 196° South 389 448 36,000  Level Kansas City Center
08:40PM 36.5064 -95.7450 194° South 391 450 36,000  Level Kansas City Center
08:41PM 36.4025 -95.7825 196° South 392 451 36,000  Level Kansas City Center
08:42PM 36.2978 -95.8169 195° South 391 450 36,000  Level Kansas City Center
08:43PM 36.1928 -95.8522 195° South 392 451 36,000  Level Kansas City Center
08:44PM 36.0658 -95.8944 195° South 394 453 36,000  Level Kansas City Center
08:45PM 35.9597 -95.9292 195° South 394 453 36,000  Level Kansas City Center
08:46PM 35.8533 -95.9642 195° South 396 456 36,000  Level Kansas City Center
08:47PM 35.7453 -95.9992 195° South 398 458 36,000  Level Kansas City Center
08:48PM 35.6375 -96.0328 194° South 399 459 36,000  Level Kansas City Center
08:49PM 35.5242 -96.0719 196° South 400 460 36,000  Level Fort Worth Center
08:50PM 35.4183 -96.1069 195° South 400 460 36,000  Level Fort Worth Center
08:51PM 35.3100 -96.1417 195° South 395 455 36,000  Level Fort Worth Center
08:52PM 35.2019 -96.1761 195° South 395 455 36,000  Level Fort Worth Center
08:53PM 35.0939 -96.2108 195° South 395 455 36,000  Level Fort Worth Center
08:54PM 34.9878 -96.2453 195° South 400 460 36,000  Level Fort Worth Center
08:55PM 34.8797 -96.2797 195° South 394 453 36,000  Level Fort Worth Center
08:56PM 34.7717 -96.3139 195° South 394 453 36,000  Level Fort Worth Center
08:57PM 34.6633 -96.3506 196° South 394 453 36,000  Level Fort Worth Center
08:58PM 34.5553 -96.3847 195° South 394 453 36,000  Level Fort Worth Center
08:59PM 34.4469 -96.4189 195° South 399 459 36,000  Level Fort Worth Center
09:00PM 34.3367 -96.4503 193° South 399 459 36,000  Level Fort Worth Center
09:01PM 34.2219 -96.4567 183° South 406 467 36,000  Level Fort Worth Center
09:02PM 34.1072 -96.4603 181° South 411 473 36,000  Level Fort Worth Center
09:03PM 33.9925 -96.4617 181° South 411 473 36,000  Level Fort Worth Center
09:04PM 33.8778 -96.4678 183° South 416 479 36,000  Level Fort Worth Center
09:05PM 33.7669 -96.4639 178° South 416 479 36,000  Level Fort Worth Center
09:06PM 33.6503 -96.4678 182° South 413 475 36,000  Level Fort Worth Center
09:07PM 33.5353 -96.4714 181° South 413 475 36,000 -180 Level Fort Worth Center
09:08PM 33.4311 -96.4725 181° South 417 480 35,700 -540 Descending Fort Worth Center
09:09PM 33.3058 -96.4764 181° South 420 483 35,000 -360 Descending Fort Worth Center
09:10PM 33.1994 -96.4775 181° South 420 483 35,000 -120 Level Fort Worth Center
09:11PM 33.0700 -96.4839 182° South 420 483 34,800 -540 Descending Fort Worth Center
09:12PM 32.9614 -96.4850 180° South 429 494 34,000 -1,020 Descending Fort Worth Center
09:13PM 32.8319 -96.4864 181° South 434 499 32,800 -1,140 Descending Fort Worth Center
09:14PM 32.7131 -96.4900 181° South 429 494 31,800 -1,620 Descending Fort Worth Center
09:15PM 32.5942 -96.4911 180° South 424 488 29,600 -1,440 Descending Fort Worth Center
09:16PM 32.4731 -96.4950 182° South 429 494 29,000 -300 Descending Fort Worth Center
09:17PM 32.3603 -96.4961 180° South 444 511 29,000  Level Fort Worth Center
09:18PM 32.2267 -96.4997 181° South 444 511 29,000  Level Fort Worth Center
09:19PM 32.1036 -96.5011 181° South 439 505 29,000  Level Fort Worth Center
09:20PM 31.9783 -96.5022 180° South 439 505 29,000  Level Fort Worth Center
09:21PM 31.8572 -96.5058 181° South 439 505 29,000  Level Fort Worth Center
09:22PM 31.7361 -96.5094 181° South 439 505 29,000  Level Fort Worth Center
09:24PM 31.5078 -96.5078 180° South 446 513 29,000  Level Houston Center
09:25PM 31.3831 -96.4622 163° South 460 529 29,000 -540 Level Houston Center
09:26PM 31.2392 -96.4078 162° South 462 532 28,000 -1,140 Descending Houston Center
09:27PM 31.1150 -96.3506 158° South 476 548 26,700 -1,740 Descending Houston Center
09:28PM 31.0028 -96.2683 148° Southeast 473 544 24,500 -2,400 Descending Houston Center
09:29PM 30.8939 -96.1881 148° Southeast 462 532 21,900 -2,640 Descending Houston Center
09:30PM 30.7850 -96.1086 148° Southeast 452 520 19,200 -2,280 Descending Houston Center
09:31PM 30.6836 -96.0333 147° Southeast 446 513 17,300 -2,400 Descending Houston Center
09:31PM 30.6303 -95.9928 147° Southeast 420 483 15,600 -2,820 Descending Houston Center
09:32PM 30.5903 -95.9603 145° Southeast 422 486 14,500 -2,280 Descending Houston Center
09:32PM 30.5317 -95.9194 149° Southeast 417 480 13,300 -2,100 Descending Houston Center
09:33PM 30.4925 -95.8892 146° Southeast 416 479 12,400 -1,500 Descending Houston Center
09:33PM 30.4575 -95.8650 149° Southeast 403 464 12,100 -420 Descending Houston Center
09:34PM 30.4083 -95.8136 138° Southeast 389 448 12,000  Descending Houston Center
09:34PM 30.3722 -95.7781 140° Southeast 340 391 12,100  Climbing Houston Center
09:35PM 30.3392 -95.7442 138° Southeast 340 391 12,000  Descending Houston Center
09:35PM 30.3031 -95.7061 138° Southeast 320 368 12,100 -840 Climbing Houston Center
09:36PM 30.2744 -95.6744 136° Southeast 322 371 11,200 -2,220 Descending Houston Center
09:36PM 30.2406 -95.6411 140° Southeast 307 353 9,900 -2,940 Descending Houston Center
09:37PM 30.1981 -95.5950 137° Southeast 311 358 8,200 -2,280 Descending Houston Center
09:37PM 30.1781 -95.5758 140° Southeast 301 346 7,600 -1,800 Descending Houston Center
09:38PM 30.1381 -95.5336 138° Southeast 296 341 6,400 -1,440 Descending Houston Center
09:39PM 30.1147 -95.5014 130° Southeast 272 313 6,000 -420 Descending Houston Center
09:39PM 30.1067 -95.4597 103° East 274 315 6,000  Level Houston Center
09:39PM 30.1067 -95.4372 90° East 216 249 6,000 -120 Level Houston Center
09:40PM 30.1064 -95.3864 90° East 234 269 5,900  Descending Houston Center
09:40PM 30.1061 -95.3622 91° East 222 255 6,000  Climbing Houston Center
09:41PM 30.1067 -95.3108 89° East 233 268 5,900 -600 Descending Houston Center
09:42PM 30.1067 -95.2367 90° East 232 267 5,000 -1,260 Descending Houston Center
09:43PM 30.1050 -95.1428 91° East 223 257 3,200 -1,500 Descending Houston Center
09:44PM 30.0894 -95.0958 111° Southeast 232 267 2,000 -600 Descending Houston Center
09:45PM 30.0222 -95.0658 159° South 231 266 2,000 -60 Level Houston Center
09:46PM 30.0078 -95.1022 245° Southwest 220 253 1,900 -60 Descending Houston Center
09:47PM 30.0083 -95.1797 270° West 207 238 1,900  Level Houston Center